createdAt,value
2018-06-17T00:01:23.694Z,18.10
2018-06-17T00:04:27.992Z,18.10
2018-06-17T00:07:32.296Z,18.00
2018-06-17T00:10:36.719Z,18.00
2018-06-17T00:13:41.094Z,18.00
2018-06-17T00:16:45.438Z,18.00
2018-06-17T00:19:49.478Z,18.00
2018-06-17T00:22:53.736Z,17.90
2018-06-17T00:25:58.332Z,17.90
2018-06-17T00:29:02.442Z,17.90
2018-06-17T00:32:06.749Z,17.80
2018-06-17T00:35:11.161Z,17.80
2018-06-17T00:38:15.595Z,17.80
2018-06-17T00:41:19.906Z,17.80
2018-06-17T00:44:24.971Z,17.80
2018-06-17T00:47:29.407Z,17.70
2018-06-17T00:50:33.693Z,17.60
2018-06-17T00:53:38.073Z,17.60
2018-06-17T00:56:42.408Z,17.60
2018-06-17T00:59:46.732Z,17.50
2018-06-17T01:02:51.086Z,17.50
2018-06-17T01:05:55.378Z,17.40
2018-06-17T01:08:59.749Z,17.40
2018-06-17T01:12:04.002Z,17.40
2018-06-17T01:15:08.393Z,17.40
2018-06-17T01:18:12.650Z,17.30
2018-06-17T01:21:17.266Z,17.30
2018-06-17T01:24:21.718Z,17.30
2018-06-17T01:27:25.958Z,17.30
2018-06-17T01:30:30.344Z,17.30
2018-06-17T01:33:34.795Z,17.30
2018-06-17T01:36:39.061Z,17.30
2018-06-17T01:39:43.414Z,17.30
2018-06-17T01:42:47.834Z,17.20
2018-06-17T01:45:52.237Z,17.20
2018-06-17T01:48:56.591Z,17.20
2018-06-17T01:52:00.953Z,17.20
2018-06-17T01:55:05.968Z,17.20
2018-06-17T01:58:10.310Z,17.20
2018-06-17T02:01:14.403Z,17.20
2018-06-17T02:04:23.822Z,17.20
2018-06-17T02:07:33.222Z,17.10
2018-06-17T02:10:42.680Z,17.10
2018-06-17T02:13:47.039Z,17.10
2018-06-17T02:16:51.399Z,17.10
2018-06-17T02:19:56.042Z,17.10
2018-06-17T02:23:00.203Z,17.10
2018-06-17T02:26:04.495Z,17.00
2018-06-17T02:29:08.789Z,17.10
2018-06-17T02:32:13.095Z,17.00
2018-06-17T02:35:17.543Z,17.00
2018-06-17T02:38:22.282Z,16.90
2018-06-17T02:41:26.335Z,16.90
2018-06-17T02:44:30.525Z,16.90
2018-06-17T02:48:43.227Z,16.80
2018-06-17T02:51:52.739Z,16.80
2018-06-17T02:54:56.909Z,16.80
2018-06-17T02:58:01.174Z,16.80
2018-06-17T03:01:05.471Z,16.80
2018-06-17T03:04:09.817Z,16.80
2018-06-17T03:07:14.115Z,16.70
2018-06-17T03:10:18.510Z,16.70
2018-06-17T03:13:22.787Z,16.70
2018-06-17T03:16:27.241Z,16.70
2018-06-17T03:19:31.555Z,16.70
2018-06-17T03:22:35.871Z,16.70
2018-06-17T03:25:45.327Z,16.70
2018-06-17T03:30:57.236Z,16.70
2018-06-17T03:34:01.435Z,16.80
2018-06-17T03:37:05.727Z,16.70
2018-06-17T03:40:10.078Z,16.70
2018-06-17T03:43:21.576Z,16.80
2018-06-17T03:46:25.761Z,16.80
2018-06-17T03:49:29.890Z,16.90
2018-06-17T03:52:34.166Z,16.90
2018-06-17T03:55:38.484Z,16.90
2018-06-17T03:58:42.672Z,17.00
2018-06-17T04:01:46.737Z,17.00
2018-06-17T04:04:56.016Z,17.10
2018-06-17T04:08:01.123Z,17.10
2018-06-17T04:11:05.443Z,17.20
2018-06-17T04:14:09.749Z,17.20
2018-06-17T04:17:15.195Z,17.30
2018-06-17T04:20:19.589Z,17.40
2018-06-17T04:23:23.940Z,17.60
2018-06-17T04:26:28.246Z,17.60
2018-06-17T04:29:32.539Z,17.70
2018-06-17T04:32:36.874Z,17.80
2018-06-17T04:35:41.201Z,17.90
2018-06-17T04:38:45.594Z,18.00
2018-06-17T04:41:50.050Z,18.10
2018-06-17T04:44:54.361Z,18.20
2018-06-17T04:47:58.722Z,18.20
2018-06-17T04:51:03.027Z,18.30
2018-06-17T04:54:07.351Z,18.40
2018-06-17T04:57:11.523Z,18.50
2018-06-17T05:00:15.880Z,18.50
2018-06-17T05:03:20.184Z,18.50
2018-06-17T05:06:24.615Z,18.60
2018-06-17T05:09:28.966Z,18.70
2018-06-17T05:12:33.489Z,18.80
2018-06-17T05:15:37.889Z,18.80
2018-06-17T05:18:42.080Z,19.00
2018-06-17T05:21:46.242Z,19.20
2018-06-17T05:24:50.409Z,19.30
2018-06-17T05:27:54.730Z,19.30
2018-06-17T05:30:58.855Z,19.40
2018-06-17T05:34:03.204Z,19.60
2018-06-17T05:37:07.507Z,19.70
2018-06-17T05:40:11.908Z,19.80
2018-06-17T05:43:16.568Z,20.00
2018-06-17T05:46:20.918Z,20.10
2018-06-17T05:49:25.248Z,20.20
2018-06-17T05:52:29.429Z,20.40
2018-06-17T05:55:33.623Z,20.40
2018-06-17T05:58:38.011Z,20.50
2018-06-17T06:01:42.894Z,20.60
2018-06-17T06:04:47.183Z,20.80
2018-06-17T06:07:51.407Z,20.90
2018-06-17T06:10:55.666Z,21.10
2018-06-17T06:14:00.022Z,21.20
2018-06-17T06:17:04.351Z,21.50
2018-06-17T06:20:09.936Z,21.70
2018-06-17T06:23:14.174Z,21.80
2018-06-17T06:26:18.538Z,22.00
2018-06-17T06:29:22.752Z,22.10
2018-06-17T06:32:27.128Z,22.50
2018-06-17T06:35:31.287Z,22.90
2018-06-17T06:38:35.714Z,23.10
2018-06-17T06:41:40.267Z,23.40
2018-06-17T06:44:44.430Z,23.50
2018-06-17T06:47:48.748Z,23.80
2018-06-17T06:50:53.698Z,23.90
2018-06-17T06:53:57.933Z,24.20
2018-06-17T06:57:02.416Z,24.60
2018-06-17T07:00:06.702Z,25.20
2018-06-17T07:03:21.758Z,25.60
2018-06-17T07:06:36.990Z,25.90
2018-06-17T07:09:57.072Z,25.80
2018-06-17T07:13:01.270Z,25.90
2018-06-17T07:16:16.323Z,26.10
2018-06-17T07:19:20.647Z,26.20
2018-06-17T07:22:24.881Z,26.30
2018-06-17T07:27:42.852Z,26.70
2018-06-17T07:30:47.162Z,27.00
2018-06-17T07:33:51.494Z,27.70
2018-06-17T07:36:55.822Z,28.00
2018-06-17T07:40:19.609Z,28.20
2018-06-17T07:43:23.931Z,28.30
2018-06-17T07:46:28.206Z,28.20
2018-06-17T07:49:48.931Z,28.30
2018-06-17T07:53:03.907Z,28.40
2018-06-17T07:56:08.170Z,28.70
2018-06-17T07:59:12.448Z,29.40
2018-06-17T08:02:16.959Z,29.90
2018-06-17T08:05:21.467Z,30.00
2018-06-17T08:08:26.019Z,30.00
2018-06-17T08:11:30.437Z,29.80
2018-06-17T08:14:34.704Z,29.50
2018-06-17T08:17:38.959Z,29.10
2018-06-17T08:20:43.334Z,28.90
2018-06-17T08:23:47.735Z,28.80
2018-06-17T08:26:52.193Z,28.90
2018-06-17T08:29:56.590Z,29.20
2018-06-17T08:33:00.934Z,29.40
2018-06-17T08:36:05.107Z,29.50
2018-06-17T08:39:11.978Z,29.50
2018-06-17T08:42:16.176Z,29.50
2018-06-17T08:45:20.697Z,29.50
2018-06-17T08:48:24.848Z,29.60
2018-06-17T08:51:29.348Z,29.80
2018-06-17T08:54:33.743Z,30.10
2018-06-17T08:57:37.994Z,30.30
2018-06-17T09:00:42.279Z,30.50
2018-06-17T09:03:46.436Z,30.80
2018-06-17T09:06:50.695Z,30.90
2018-06-17T09:09:55.040Z,30.80
2018-06-17T09:12:59.239Z,30.70
2018-06-17T09:16:03.547Z,30.80
2018-06-17T09:19:07.905Z,30.90
2018-06-17T09:22:12.313Z,30.90
2018-06-17T09:25:16.689Z,31.10
2018-06-17T09:28:20.759Z,31.30
2018-06-17T09:31:24.922Z,31.30
2018-06-17T09:34:29.015Z,31.30
2018-06-17T09:37:33.146Z,31.10
2018-06-17T09:40:37.355Z,30.90
2018-06-17T09:43:41.782Z,30.80
2018-06-17T09:46:47.530Z,30.60
2018-06-17T09:49:51.937Z,30.40
2018-06-17T09:52:56.223Z,30.40
2018-06-17T09:56:00.709Z,30.30
2018-06-17T09:59:05.047Z,30.30
2018-06-17T10:02:09.599Z,30.30
2018-06-17T10:05:13.932Z,30.10
2018-06-17T10:08:18.938Z,30.00
2018-06-17T10:11:23.327Z,30.00
2018-06-17T10:14:28.045Z,30.10
2018-06-17T10:17:32.247Z,30.20
2018-06-17T10:20:36.867Z,30.40
2018-06-17T10:23:44.055Z,30.30
2018-06-17T10:26:49.013Z,30.30
2018-06-17T10:29:53.286Z,30.20
2018-06-17T10:32:57.921Z,30.20
2018-06-17T10:36:02.810Z,30.40
2018-06-17T10:39:08.589Z,30.50
2018-06-17T10:42:13.153Z,30.60
2018-06-17T10:45:17.797Z,30.70
2018-06-17T10:48:22.225Z,30.80
2018-06-17T10:51:26.636Z,30.90
2018-06-17T10:54:31.270Z,30.90
2018-06-17T10:57:35.558Z,30.80
2018-06-17T11:00:40.033Z,30.90
2018-06-17T11:03:44.139Z,31.20
2018-06-17T11:09:52.035Z,31.60
2018-06-17T11:12:56.247Z,31.70
2018-06-17T11:16:00.520Z,31.40
2018-06-17T11:19:04.991Z,30.80
2018-06-17T11:22:09.283Z,30.60
2018-06-17T11:25:13.622Z,30.20
2018-06-17T11:28:17.769Z,30.00
2018-06-17T11:31:21.863Z,30.00
2018-06-17T11:34:26.282Z,29.80
2018-06-17T11:37:31.146Z,29.90
2018-06-17T11:40:35.416Z,29.60
2018-06-17T11:43:39.734Z,29.60
2018-06-17T11:46:43.989Z,29.80
2018-06-17T11:49:48.428Z,30.00
2018-06-17T11:52:52.851Z,30.40
2018-06-17T11:55:57.177Z,30.60
2018-06-17T11:59:01.572Z,31.00
2018-06-17T12:02:06.699Z,31.40
2018-06-17T12:05:11.033Z,31.70
2018-06-17T12:08:15.346Z,31.80
2018-06-17T12:11:19.753Z,31.70
2018-06-17T12:14:24.209Z,32.00
2018-06-17T12:17:28.481Z,32.20
2018-06-17T12:23:36.599Z,31.80
2018-06-17T12:26:40.815Z,31.70
2018-06-17T12:29:45.544Z,31.40
2018-06-17T12:32:50.655Z,31.10
2018-06-17T12:35:55.066Z,30.80
2018-06-17T12:38:59.105Z,30.50
2018-06-17T12:42:03.183Z,30.30
2018-06-17T12:45:07.604Z,30.10
2018-06-17T12:48:11.820Z,29.90
2018-06-17T12:51:16.199Z,29.90
2018-06-17T12:54:20.590Z,29.90
2018-06-17T12:57:25.755Z,29.60
2018-06-17T13:00:29.850Z,29.60
2018-06-17T13:03:34.044Z,29.60
2018-06-17T13:06:38.442Z,29.60
2018-06-17T13:09:42.734Z,29.60
2018-06-17T13:12:47.233Z,29.60
2018-06-17T13:15:51.691Z,29.70
2018-06-17T13:18:56.089Z,29.80
2018-06-17T13:22:00.546Z,29.80
2018-06-17T13:25:04.816Z,29.80
2018-06-17T13:28:09.354Z,29.80
2018-06-17T13:31:13.712Z,29.80
2018-06-17T13:34:17.905Z,29.80
2018-06-17T13:37:22.107Z,29.80
2018-06-17T13:40:26.476Z,29.80
2018-06-17T13:43:30.745Z,29.90
2018-06-17T13:46:35.118Z,29.90
2018-06-17T13:49:39.588Z,30.00
2018-06-17T13:52:43.839Z,30.00
2018-06-17T13:55:48.116Z,30.00
2018-06-17T13:58:52.591Z,30.00
2018-06-17T14:01:57.081Z,29.90
2018-06-17T14:05:01.397Z,29.30
2018-06-17T14:08:05.685Z,29.40
2018-06-17T14:11:10.062Z,29.50
2018-06-17T14:14:14.516Z,29.50
2018-06-17T14:17:18.755Z,29.60
2018-06-17T14:20:23.326Z,29.50
2018-06-17T14:23:27.688Z,29.50
2018-06-17T14:26:31.891Z,29.40
2018-06-17T14:29:36.409Z,29.30
2018-06-17T14:32:40.766Z,29.30
2018-06-17T14:35:45.040Z,29.00
2018-06-17T14:38:49.336Z,29.00
2018-06-17T14:41:58.905Z,29.00
2018-06-17T14:45:08.415Z,29.00
2018-06-17T14:48:17.921Z,28.90
2018-06-17T14:51:27.256Z,28.90
2018-06-17T14:54:31.526Z,28.80
2018-06-17T14:57:35.955Z,28.80
2018-06-17T15:00:40.278Z,28.70
2018-06-17T15:03:44.760Z,28.60
2018-06-17T15:06:48.932Z,28.50
2018-06-17T15:09:53.826Z,28.40
2018-06-17T15:12:58.054Z,28.30
2018-06-17T15:16:02.397Z,28.20
2018-06-17T15:19:06.707Z,28.10
2018-06-17T15:22:11.145Z,28.00
2018-06-17T15:25:15.522Z,27.90
2018-06-17T15:28:20.029Z,27.80
2018-06-17T15:31:29.371Z,27.70
2018-06-17T15:37:47.679Z,27.70
2018-06-17T15:40:57.196Z,27.70
2018-06-17T15:44:01.862Z,27.80
2018-06-17T15:47:06.114Z,27.70
2018-06-17T15:50:10.698Z,27.80
2018-06-17T15:53:14.898Z,27.80
2018-06-17T15:56:19.366Z,27.90
2018-06-17T15:59:24.233Z,27.90
2018-06-17T16:05:32.567Z,27.90
2018-06-17T16:08:36.897Z,28.00
2018-06-17T16:11:46.285Z,27.90
2018-06-17T16:14:56.599Z,27.80
2018-06-17T16:18:06.034Z,27.60
2018-06-17T16:21:10.662Z,27.60
2018-06-17T16:24:16.727Z,27.50
2018-06-17T16:27:20.926Z,27.50
2018-06-17T16:30:25.248Z,27.50
2018-06-17T16:33:29.686Z,27.40
2018-06-17T16:36:34.160Z,27.40
2018-06-17T16:39:43.140Z,27.30
2018-06-17T16:42:47.431Z,27.30
2018-06-17T16:45:51.703Z,27.30
2018-06-17T16:48:56.201Z,27.30
2018-06-17T16:52:05.715Z,27.20
2018-06-17T16:55:14.790Z,27.20
2018-06-17T16:58:24.285Z,27.20
2018-06-17T17:01:28.420Z,27.20
2018-06-17T17:04:32.747Z,27.20
2018-06-17T17:07:37.121Z,27.10
2018-06-17T17:10:41.538Z,27.10
2018-06-17T17:13:45.943Z,27.10
2018-06-17T17:16:50.231Z,27.10
2018-06-17T17:19:54.584Z,27.10
2018-06-17T17:22:58.785Z,27.10
2018-06-17T17:26:03.067Z,27.10
2018-06-17T17:29:07.637Z,27.10
2018-06-17T17:32:17.416Z,26.90
2018-06-17T17:35:26.933Z,26.90
2018-06-17T17:38:36.562Z,26.90
2018-06-17T17:41:41.069Z,26.80
2018-06-17T17:44:50.375Z,26.80
2018-06-17T17:47:54.615Z,26.70
2018-06-17T17:50:59.076Z,26.70
2018-06-17T17:54:03.947Z,26.60
2018-06-17T17:57:08.714Z,26.50
2018-06-17T18:00:12.974Z,26.40
2018-06-17T18:03:17.448Z,26.40
2018-06-17T18:06:21.919Z,26.30
2018-06-17T18:09:26.139Z,26.20
2018-06-17T18:12:30.551Z,26.10
2018-06-17T18:15:34.823Z,26.00
2018-06-17T18:18:39.288Z,25.90
2018-06-17T18:21:43.827Z,25.80
2018-06-17T18:24:53.453Z,25.70
2018-06-17T18:28:03.069Z,25.70
2018-06-17T18:31:07.728Z,25.60
2018-06-17T18:34:16.955Z,25.50
2018-06-17T18:37:21.285Z,25.40
2018-06-17T18:40:25.695Z,25.30
2018-06-17T18:43:29.980Z,25.10
2018-06-17T18:46:34.199Z,25.00
2018-06-17T18:49:38.695Z,25.00
2018-06-17T18:52:43.211Z,24.90
2018-06-17T18:55:47.782Z,24.90
2018-06-17T18:58:52.195Z,24.80
2018-06-17T19:01:56.584Z,24.70
2018-06-17T19:05:01.485Z,24.60
2018-06-17T19:08:08.405Z,24.50
2018-06-17T19:11:17.832Z,24.50
2018-06-17T19:14:27.164Z,24.40
2018-06-17T19:18:10.632Z,24.30
2018-06-17T19:21:15.001Z,24.30
2018-06-17T19:24:19.387Z,24.30
2018-06-17T19:27:23.845Z,24.20
2018-06-17T19:30:28.121Z,24.10
2018-06-17T19:33:32.646Z,24.00
2018-06-17T19:36:37.025Z,24.00
2018-06-17T19:39:41.370Z,24.00
2018-06-17T19:42:45.953Z,23.90
2018-06-17T19:45:50.338Z,23.80
2018-06-17T19:48:54.778Z,23.80
2018-06-17T19:52:04.346Z,23.70
2018-06-17T19:55:13.646Z,23.70
2018-06-17T19:58:23.298Z,23.60
2018-06-17T20:01:27.490Z,23.60
2018-06-17T20:04:31.785Z,23.60
2018-06-17T20:07:36.615Z,23.60
2018-06-17T20:10:40.866Z,23.50
2018-06-17T20:13:45.179Z,23.50
2018-06-17T20:16:49.642Z,23.40
2018-06-17T20:19:54.143Z,23.40
2018-06-17T20:22:58.878Z,23.30
2018-06-17T20:26:04.095Z,23.30
2018-06-17T20:29:08.581Z,23.30
2018-06-17T20:32:18.134Z,23.20
2018-06-17T20:35:27.565Z,23.10
2018-06-17T20:38:38.230Z,23.00
2018-06-17T20:41:47.655Z,23.00
2018-06-17T20:44:52.081Z,22.80
2018-06-17T20:47:56.615Z,22.90
2018-06-17T20:51:01.011Z,22.80
2018-06-17T20:54:05.416Z,22.70
2018-06-17T20:57:09.660Z,22.60
2018-06-17T21:00:14.023Z,22.60
2018-06-17T21:03:18.255Z,22.50
2018-06-17T21:06:22.744Z,22.40
2018-06-17T21:09:26.838Z,22.30
2018-06-17T21:12:31.030Z,22.20
2018-06-17T21:15:35.488Z,22.10
2018-06-17T21:18:45.194Z,22.10
2018-06-17T21:21:54.845Z,22.00
2018-06-17T21:25:04.738Z,21.90
2018-06-17T21:28:08.710Z,21.80
2018-06-17T21:31:12.594Z,21.80
2018-06-17T21:34:16.585Z,21.70
2018-06-17T21:37:20.509Z,21.70
2018-06-17T21:40:24.649Z,21.60
2018-06-17T21:43:29.176Z,21.50
2018-06-17T21:46:33.504Z,21.50
2018-06-17T21:49:37.442Z,21.40
2018-06-17T21:52:41.922Z,21.30
2018-06-17T21:58:49.914Z,21.20
2018-06-17T22:01:53.933Z,21.10
2018-06-17T22:04:57.882Z,21.00
2018-06-17T22:08:06.945Z,20.90
2018-06-17T22:11:15.807Z,20.80
2018-06-17T22:14:24.925Z,20.70
2018-06-17T22:17:34.021Z,20.70
2018-06-17T22:20:37.921Z,20.60
2018-06-17T22:23:42.547Z,20.50
2018-06-17T22:26:46.605Z,20.40
2018-06-17T22:29:50.926Z,20.40
2018-06-17T22:32:54.846Z,20.30
2018-06-17T22:35:58.911Z,20.30
2018-06-17T22:39:02.976Z,20.30
2018-06-17T22:42:07.294Z,20.30
2018-06-17T22:45:11.657Z,20.30
2018-06-17T22:48:15.974Z,20.30
2018-06-17T22:51:20.181Z,20.30
2018-06-17T22:54:35.281Z,20.30
2018-06-17T22:57:44.684Z,20.20
2018-06-17T23:00:54.044Z,20.20
2018-06-17T23:04:03.039Z,20.20
2018-06-17T23:07:12.630Z,20.10
2018-06-17T23:10:16.593Z,20.10
2018-06-17T23:13:20.472Z,20.10
2018-06-17T23:19:57.029Z,20.10
2018-06-17T23:23:01.322Z,20.10
2018-06-17T23:26:07.917Z,20.10
2018-06-17T23:29:12.171Z,20.10
2018-06-17T23:32:16.936Z,20.10
2018-06-17T23:35:21.253Z,20.10
2018-06-17T23:38:25.539Z,20.20
2018-06-17T23:41:29.608Z,20.30
2018-06-17T23:48:16.954Z,20.30
2018-06-17T23:51:26.554Z,20.30
2018-06-17T23:54:35.846Z,20.30
2018-06-17T23:57:40.306Z,20.40
